Latest Coastal Weather Observations for Burnie Port

IDT60701

Issued at 2:41 pm EST Friday 27 May 2016 (issued every 10 minutes, with the page automatically refreshed every 10 minutes)

About coastal observations | Map of coastal stations | Coastal observations for TAS | Marine services | Other Formats
Station Details ID: 091344 Name: BURNIE NTC AWS Lat: -41.05 Lon: 145.91 Height: 0.0 m
Data from the previous 72 hours. | See also: Recent months for locations in Tasmania
Date/Time
EST
Temp

°C
Wind Pressure Rain
since 9am
mm
Weather Cloud Vis
km
Sea
Height
m
Swell
Dir
 
Speed
knots
Gust
knots
hPa Trend Height
m
Period
s
Dir
27/02:30pm 13.5 SW 4 6 1003.8 - - - - - - - - -
27/02:00pm 13.3 S 5 9 1003.7 - - - - - - - - -
27/01:30pm 13.2 S 7 11 1003.6 - - - - - - - - -
27/01:00pm 12.9 S 9 12 1003.6 - - - - - - - - -
27/12:30pm 12.6 S 8 13 1003.8 - - - - - - - - -
27/12:00pm 12.3 SSW 7 11 1004.1 - - - - - - - - -
27/11:30am 11.8 SW 7 11 1004.2 - - - - - - - - -
27/11:00am 11.4 SSW 10 13 1004.3 - - - - - - - - -
27/10:30am 11.0 SSW 9 14 1004.4 - - - - - - - - -
27/10:00am 10.5 SSW 10 14 1004.2 - - - - - - - - -
27/09:30am 10.2 SW 9 15 1004.2 - - - - - - - - -
27/09:00am 9.7 SW 11 17 1004.0 - - - - - - - - -
27/08:30am 9.5 SW 11 17 1003.9 - - - - - - - - -
27/08:00am 9.2 SW 10 17 1003.7 - - - - - - - - -
27/07:30am 9.0 SW 10 15 1003.6 - - - - - - - - -
27/07:00am 8.9 SW 9 15 1003.4 - - - - - - - - -
27/06:30am 8.9 SW 7 13 1003.1 - - - - - - - - -
27/06:00am 9.0 WNW 3 6 1003.1 - - - - - - - - -
27/05:30am 8.8 WSW 4 7 1003.0 - - - - - - - - -
27/05:00am 9.1 SSW 4 8 1003.0 - - - - - - - - -
27/04:30am 8.7 S 5 6 1003.0 - - - - - - - - -
27/04:00am 8.7 SSW 4 6 1003.0 - - - - - - - - -
27/03:30am 8.5 SW 3 4 1003.0 - - - - - - - - -
27/03:00am 8.2 W 3 5 1003.1 - - - - - - - - -
27/02:30am 8.2 WNW 3 5 1003.0 - - - - - - - - -
27/02:00am 8.3 WNW 4 7 1002.9 - - - - - - - - -
27/01:30am 9.1 WNW 4 5 1002.7 - - - - - - - - -
27/01:00am 9.6 W 2 5 1002.7 - - - - - - - - -
27/12:30am 9.5 W 5 7 1002.6 - - - - - - - - -
27/12:00am 10.0 SW 4 6 1002.5 - - - - - - - - -
 
Date/Time
EST
Temp

°C
Wind Pressure Rain
since 9am
mm
Weather Cloud Vis
km
Sea
Height
m
Swell
Dir
 
Speed
knots
Gust
knots
hPa Trend Height
m
Period
s
Dir
26/11:30pm 10.1 SSW 8 12 1002.6 - - - - - - - - -
26/11:00pm 10.3 SSW 12 18 1002.4 - - - - - - - - -
26/10:30pm 10.2 SSW 10 16 1002.4 - - - - - - - - -
26/10:00pm 10.3 SSW 10 14 1002.6 - - - - - - - - -
26/09:30pm 10.2 SSW 11 14 1002.5 - - - - - - - - -
26/09:00pm 10.5 SSW 10 14 1002.1 - - - - - - - - -
26/08:30pm 10.7 SSW 13 18 1001.8 - - - - - - - - -
26/08:00pm 10.7 SSW 12 15 1001.7 - - - - - - - - -
26/07:30pm 10.8 SSW 11 15 1001.7 - - - - - - - - -
26/07:00pm 10.8 SSW 12 16 1001.7 - - - - - - - - -
26/06:30pm 10.9 SSW 11 17 1001.4 - - - - - - - - -
26/06:00pm 11.3 SW 10 14 1001.1 - - - - - - - - -
26/05:30pm 11.7 SW 10 15 1000.8 - - - - - - - - -
26/05:00pm 12.1 SW 10 15 1000.5 - - - - - - - - -
26/04:30pm 12.5 SW 11 17 1000.2 - - - - - - - - -
26/04:00pm 12.9 SW 9 12 1000.0 - - - - - - - - -
26/03:30pm 13.1 SSW 9 13 999.7 - - - - - - - - -
26/03:00pm 13.1 SW 10 16 999.6 - - - - - - - - -
26/02:30pm 13.1 SSW 10 16 999.3 - - - - - - - - -
26/02:00pm 12.7 SW 10 15 999.4 - - - - - - - - -
26/01:30pm 12.4 SSW 12 17 999.3 - - - - - - - - -
26/01:00pm 12.4 SSW 10 14 999.5 - - - - - - - - -
26/12:30pm 12.5 SSW 8 12 999.9 - - - - - - - - -
26/12:00pm 12.5 SSW 8 12 1000.2 - - - - - - - - -
26/11:30am 12.3 SSW 9 12 1000.5 - - - - - - - - -
26/11:00am 12.2 SSW 11 15 1000.7 - - - - - - - - -
26/10:30am 12.0 SSW 10 13 1000.9 - - - - - - - - -
26/10:00am 12.0 SW 10 14 1000.8 - - - - - - - - -
26/09:30am 11.8 SSW 7 12 1001.0 - - - - - - - - -
26/09:00am 11.4 WSW 4 7 1001.1 - - - - - - - - -
26/08:30am 11.3 WNW 4 7 1001.3 - - - - - - - - -
26/08:00am 11.4 W 4 6 1001.2 - - - - - - - - -
26/07:30am 11.3 WSW 3 5 1001.0 - - - - - - - - -
26/07:00am 11.3 WSW 3 5 1000.9 - - - - - - - - -
26/06:30am 11.6 SSW 4 7 1000.8 - - - - - - - - -
26/06:00am 11.8 SW 4 7 1000.9 - - - - - - - - -
26/05:30am 11.6 SSW 6 10 1001.0 - - - - - - - - -
26/05:00am 11.9 SSW 2 3 1001.0 - - - - - - - - -
26/04:30am 12.4 W 2 3 1001.2 - - - - - - - - -
26/04:00am 12.9 WSW 4 7 1001.1 - - - - - - - - -
26/03:30am 13.0 SW 2 4 1001.0 - - - - - - - - -
26/03:00am 13.2 WSW 4 7 1001.3 - - - - - - - - -
26/02:30am 14.0 NNW 12 15 1001.5 - - - - - - - - -
26/02:00am 14.0 NW 19 25 1001.9 - - - - - - - - -
26/01:30am 13.6 NW 19 23 1002.3 - - - - - - - - -
26/01:00am 13.4 NW 17 21 1002.6 - - - - - - - - -
26/12:30am 13.3 NW 16 21 1003.0 - - - - - - - - -
26/12:00am 13.4 NNW 14 17 1003.5 - - - - - - - - -
 
Date/Time
EST
Temp

°C
Wind Pressure Rain
since 9am
mm
Weather Cloud Vis
km
Sea
Height
m
Swell
Dir
 
Speed
knots
Gust
knots
hPa Trend Height
m
Period
s
Dir
25/11:30pm 13.3 NW 15 19 1004.0 - - - - - - - - -
25/11:00pm 12.8 NW 15 19 1004.4 - - - - - - - - -
25/10:30pm 13.2 NW 17 21 1004.8 - - - - - - - - -
25/10:00pm 13.4 NNW 19 24 1005.0 - - - - - - - - -
25/09:30pm 13.9 NNW 19 24 1005.3 - - - - - - - - -
25/09:00pm 14.0 NNW 20 26 1005.4 - - - - - - - - -
25/08:30pm 14.1 NNW 21 27 1005.5 - - - - - - - - -
25/08:00pm 14.0 NNW 22 28 1005.5 - - - - - - - - -
25/07:41pm 14.0 NNE 7 21 1005.6 - - - - - - - - -
25/07:30pm 12.6 SSW 2 4 1005.6 - - - - - - - - -
25/07:00pm 12.2 S 4 6 1005.6 - - - - - - - - -
25/06:30pm 12.1 SSW 5 6 1005.8 - - - - - - - - -
25/06:00pm 11.9 SSW 4 6 1006.1 - - - - - - - - -
25/05:30pm 12.0 SE 3 4 1006.3 - - - - - - - - -
25/05:00pm 12.1 ESE 6 8 1006.5 - - - - - - - - -
25/04:30pm 11.8 S 5 6 1006.8 - - - - - - - - -
25/04:00pm 11.6 SE 7 9 1007.1 - - - - - - - - -
25/03:30pm 11.7 ESE 10 13 1007.4 - - - - - - - - -
25/03:00pm 11.3 ESE 10 13 1007.8 - - - - - - - - -
25/02:30pm 10.8 ESE 10 13 1007.7 - - - - - - - - -
25/02:00pm 10.7 ESE 11 13 1008.2 - - - - - - - - -
25/01:30pm 10.5 ESE 10 13 1008.5 - - - - - - - - -
25/01:00pm 10.1 ESE 9 12 1009.3 - - - - - - - - -
25/12:30pm 9.8 ESE 9 11 1009.7 - - - - - - - - -
25/12:00pm 9.8 ESE 9 10 1010.3 - - - - - - - - -
25/11:30am 9.7 ESE 8 10 1011.0 - - - - - - - - -
25/11:00am 9.5 ESE 8 10 1011.3 - - - - - - - - -
25/10:30am 9.5 ESE 4 6 1011.7 - - - - - - - - -
25/10:00am 8.8 SSW 3 4 1012.4 - - - - - - - - -
25/09:30am 8.4 SSW 5 8 1012.5 - - - - - - - - -
25/09:00am 8.1 S 4 7 1012.9 - - - - - - - - -
25/08:30am 8.0 S 5 6 1013.1 - - - - - - - - -
25/08:00am 7.3 SSW 8 10 1013.3 - - - - - - - - -
25/07:30am 7.5 S 7 9 1013.2 - - - - - - - - -
25/07:00am 7.3 S 8 10 1013.1 - - - - - - - - -
25/06:30am 7.4 SSW 7 9 1013.2 - - - - - - - - -
25/06:00am 7.0 SSW 9 11 1013.1 - - - - - - - - -
25/05:30am 6.8 SSW 8 10 1013.5 - - - - - - - - -
25/05:00am 7.3 SSW 8 10 1014.0 - - - - - - - - -
25/04:30am 7.4 SSW 8 10 1014.0 - - - - - - - - -
25/04:00am 7.2 SSW 6 9 1014.4 - - - - - - - - -
25/03:30am 7.0 SW 6 9 1014.5 - - - - - - - - -
25/03:00am 7.3 WSW 7 13 1014.7 - - - - - - - - -
25/02:30am 6.7 SW 1 2 1014.5 - - - - - - - - -
25/02:00am 7.0 S 4 6 1014.3 - - - - - - - - -
25/01:30am 7.3 SW 3 5 1014.6 - - - - - - - - -
25/01:00am 7.7 SW 3 8 1014.7 - - - - - - - - -

Other Formats:

Comma delimited format used in spreadsheet applications
http://www.bom.gov.au/fwo/IDT60701/IDT60701.95963.axf

JavaScript Object Notation format (JSON) in row-major order
http://www.bom.gov.au/fwo/IDT60701/IDT60701.95963.json